Terminal Aerodrome Forecast
Issued by NWS Upton, NY

Home | Current Version | Previous Version | Text Only | Print | Product List | Glossary On
Versions: 1 2 3 4 5 6 7 8 9 10 11 12 13 14 15 16 17 18 19 20 21 22 23 24 25 26 27 28 29 30 31 32 33 34
000
FTUS41 KOKX 172340
TAFLGA
TAF
KLGA 172340Z 1800/1824 31010KT P6SM FEW250
      TEMPO 1800/1802 31014G20KT
     FM180500 VRB05KT P6SM FEW250
     FM181400 20010G16KT P6SM BKN150
     FM181800 20014G23KT P6SM VCSH SCT050 BKN100=

USA.gov is the U.S. government's official web portal to all federal, state and local government web resources and services.